sensor_id;sensor_type;location;lat;lon;timestamp;temperature;humidity
20590;DHT22;10453;50.810;12.540;2022-08-19T00:02:11;18.60;99.90
20590;DHT22;10453;50.810;12.540;2022-08-19T00:06:29;18.60;99.90
20590;DHT22;10453;50.810;12.540;2022-08-19T00:10:47;18.60;99.90
20590;DHT22;10453;50.810;12.540;2022-08-19T00:15:07;18.60;99.90
20590;DHT22;10453;50.810;12.540;2022-08-19T00:19:28;18.70;99.90
20590;DHT22;10453;50.810;12.540;2022-08-19T00:23:46;18.70;99.90
20590;DHT22;10453;50.810;12.540;2022-08-19T00:28:04;18.70;99.90
20590;DHT22;10453;50.810;12.540;2022-08-19T00:32:21;18.70;99.90
20590;DHT22;10453;50.810;12.540;2022-08-19T00:36:40;18.70;99.90
20590;DHT22;10453;50.810;12.540;2022-08-19T00:40:58;18.60;99.90
20590;DHT22;10453;50.810;12.540;2022-08-19T00:45:21;18.60;99.90
20590;DHT22;10453;50.810;12.540;2022-08-19T00:54:04;18.70;99.90
20590;DHT22;10453;50.810;12.540;2022-08-19T00:58:25;18.70;99.90
20590;DHT22;10453;50.810;12.540;2022-08-19T01:02:45;18.70;99.90
20590;DHT22;10453;50.810;12.540;2022-08-19T01:07:02;18.60;99.90
20590;DHT22;10453;50.810;12.540;2022-08-19T01:11:19;18.70;99.90
20590;DHT22;10453;50.810;12.540;2022-08-19T01:15:47;18.70;99.90
20590;DHT22;10453;50.810;12.540;2022-08-19T01:20:06;18.70;99.90
20590;DHT22;10453;50.810;12.540;2022-08-19T01:24:26;18.70;99.90
20590;DHT22;10453;50.810;12.540;2022-08-19T01:28:44;18.70;99.90
20590;DHT22;10453;50.810;12.540;2022-08-19T01:33:03;18.70;99.90
20590;DHT22;10453;50.810;12.540;2022-08-19T01:37:22;18.70;99.90
20590;DHT22;10453;50.810;12.540;2022-08-19T01:41:43;18.70;99.90
20590;DHT22;10453;50.810;12.540;2022-08-19T01:46:00;18.70;99.90
20590;DHT22;10453;50.810;12.540;2022-08-19T01:50:20;18.80;99.90
20590;DHT22;10453;50.810;12.540;2022-08-19T01:54:38;18.80;99.90
20590;DHT22;10453;50.810;12.540;2022-08-19T01:58:58;18.70;99.90
20590;DHT22;10453;50.810;12.540;2022-08-19T02:03:16;18.90;99.90
20590;DHT22;10453;50.810;12.540;2022-08-19T02:07:35;19.00;99.90
20590;DHT22;10453;50.810;12.540;2022-08-19T02:11:57;19.00;99.90
20590;DHT22;10453;50.810;12.540;2022-08-19T02:16:17;18.90;99.90
20590;DHT22;10453;50.810;12.540;2022-08-19T02:20:36;18.80;99.90
20590;DHT22;10453;50.810;12.540;2022-08-19T02:24:54;18.90;99.90
20590;DHT22;10453;50.810;12.540;2022-08-19T02:29:12;18.90;99.90
20590;DHT22;10453;50.810;12.540;2022-08-19T02:33:29;18.90;99.90
20590;DHT22;10453;50.810;12.540;2022-08-19T02:37:47;18.90;99.90
20590;DHT22;10453;50.810;12.540;2022-08-19T02:42:23;18.90;99.90
20590;DHT22;10453;50.810;12.540;2022-08-19T02:46:40;19.00;99.90
20590;DHT22;10453;50.810;12.540;2022-08-19T02:50:57;18.90;99.90
20590;DHT22;10453;50.810;12.540;2022-08-19T02:55:14;18.90;99.90
20590;DHT22;10453;50.810;12.540;2022-08-19T02:59:32;18.90;99.90
20590;DHT22;10453;50.810;12.540;2022-08-19T03:03:49;18.90;99.90
20590;DHT22;10453;50.810;12.540;2022-08-19T03:08:08;19.00;99.90
20590;DHT22;10453;50.810;12.540;2022-08-19T03:12:29;19.10;99.90
20590;DHT22;10453;50.810;12.540;2022-08-19T03:16:49;19.00;99.90
20590;DHT22;10453;50.810;12.540;2022-08-19T03:21:07;19.00;99.90
20590;DHT22;10453;50.810;12.540;2022-08-19T03:25:28;19.00;99.90
20590;DHT22;10453;50.810;12.540;2022-08-19T03:29:45;18.90;99.90
20590;DHT22;10453;50.810;12.540;2022-08-19T03:34:05;18.90;99.90
20590;DHT22;10453;50.810;12.540;2022-08-19T03:38:24;18.90;99.90
20590;DHT22;10453;50.810;12.540;2022-08-19T03:42:41;18.90;99.90
20590;DHT22;10453;50.810;12.540;2022-08-19T03:47:15;18.90;99.90
20590;DHT22;10453;50.810;12.540;2022-08-19T03:51:36;18.90;99.90
20590;DHT22;10453;50.810;12.540;2022-08-19T03:55:54;19.00;99.90
20590;DHT22;10453;50.810;12.540;2022-08-19T04:00:12;19.00;99.90
20590;DHT22;10453;50.810;12.540;2022-08-19T04:04:30;19.00;99.90
20590;DHT22;10453;50.810;12.540;2022-08-19T04:08:49;19.00;99.90
20590;DHT22;10453;50.810;12.540;2022-08-19T04:13:07;18.90;99.90
20590;DHT22;10453;50.810;12.540;2022-08-19T04:17:25;18.90;99.90
20590;DHT22;10453;50.810;12.540;2022-08-19T04:21:45;18.80;99.90
20590;DHT22;10453;50.810;12.540;2022-08-19T04:26:03;18.80;99.90
20590;DHT22;10453;50.810;12.540;2022-08-19T04:30:20;18.80;99.90
20590;DHT22;10453;50.810;12.540;2022-08-19T04:34:39;18.80;99.90
20590;DHT22;10453;50.810;12.540;2022-08-19T04:39:21;18.80;99.90
20590;DHT22;10453;50.810;12.540;2022-08-19T04:43:39;18.80;99.90
20590;DHT22;10453;50.810;12.540;2022-08-19T04:47:56;18.70;99.90
20590;DHT22;10453;50.810;12.540;2022-08-19T04:52:34;18.80;99.90
20590;DHT22;10453;50.810;12.540;2022-08-19T04:56:54;18.80;99.90
20590;DHT22;10453;50.810;12.540;2022-08-19T05:01:13;18.80;99.90
20590;DHT22;10453;50.810;12.540;2022-08-19T05:05:31;18.90;99.90
20590;DHT22;10453;50.810;12.540;2022-08-19T05:10:03;18.80;99.90
20590;DHT22;10453;50.810;12.540;2022-08-19T05:14:21;18.80;99.90
20590;DHT22;10453;50.810;12.540;2022-08-19T05:18:39;18.80;99.90
20590;DHT22;10453;50.810;12.540;2022-08-19T05:23:16;18.80;99.90
20590;DHT22;10453;50.810;12.540;2022-08-19T05:27:39;18.70;99.90
20590;DHT22;10453;50.810;12.540;2022-08-19T05:31:56;18.80;99.90
20590;DHT22;10453;50.810;12.540;2022-08-19T05:36:13;18.80;99.90
20590;DHT22;10453;50.810;12.540;2022-08-19T05:40:31;18.80;99.90
20590;DHT22;10453;50.810;12.540;2022-08-19T05:44:51;18.80;99.90
20590;DHT22;10453;50.810;12.540;2022-08-19T05:49:08;18.80;99.90
20590;DHT22;10453;50.810;12.540;2022-08-19T05:53:25;18.80;99.90
20590;DHT22;10453;50.810;12.540;2022-08-19T05:57:43;18.90;99.90
20590;DHT22;10453;50.810;12.540;2022-08-19T06:02:00;18.90;99.90
20590;DHT22;10453;50.810;12.540;2022-08-19T06:06:19;18.80;99.90
20590;DHT22;10453;50.810;12.540;2022-08-19T06:10:36;18.90;99.90
20590;DHT22;10453;50.810;12.540;2022-08-19T06:14:54;19.00;99.90
20590;DHT22;10453;50.810;12.540;2022-08-19T06:19:20;19.00;99.90
20590;DHT22;10453;50.810;12.540;2022-08-19T06:23:39;19.10;99.90
20590;DHT22;10453;50.810;12.540;2022-08-19T06:27:56;19.10;99.90
20590;DHT22;10453;50.810;12.540;2022-08-19T06:32:31;19.10;99.90
20590;DHT22;10453;50.810;12.540;2022-08-19T06:36:50;19.10;99.90
20590;DHT22;10453;50.810;12.540;2022-08-19T06:41:08;19.10;99.90
20590;DHT22;10453;50.810;12.540;2022-08-19T06:45:26;19.10;99.90
20590;DHT22;10453;50.810;12.540;2022-08-19T06:49:57;19.10;99.90
20590;DHT22;10453;50.810;12.540;2022-08-19T06:54:19;19.00;99.90
20590;DHT22;10453;50.810;12.540;2022-08-19T06:58:36;19.10;99.90
20590;DHT22;10453;50.810;12.540;2022-08-19T07:02:55;19.10;99.90
20590;DHT22;10453;50.810;12.540;2022-08-19T07:07:20;19.10;99.90
20590;DHT22;10453;50.810;12.540;2022-08-19T07:11:38;19.10;99.90
20590;DHT22;10453;50.810;12.540;2022-08-19T07:15:55;19.10;99.90
20590;DHT22;10453;50.810;12.540;2022-08-19T07:20:13;19.20;99.90
20590;DHT22;10453;50.810;12.540;2022-08-19T07:24:35;19.20;99.90
20590;DHT22;10453;50.810;12.540;2022-08-19T07:28:53;19.20;99.90
20590;DHT22;10453;50.810;12.540;2022-08-19T07:33:11;19.30;99.90
20590;DHT22;10453;50.810;12.540;2022-08-19T07:37:30;19.30;99.90
20590;DHT22;10453;50.810;12.540;2022-08-19T07:41:49;19.40;99.90
20590;DHT22;10453;50.810;12.540;2022-08-19T07:46:07;19.30;99.90
20590;DHT22;10453;50.810;12.540;2022-08-19T07:50:29;19.30;99.90
20590;DHT22;10453;50.810;12.540;2022-08-19T07:54:46;19.40;99.90
20590;DHT22;10453;50.810;12.540;2022-08-19T07:59:04;19.40;99.90
20590;DHT22;10453;50.810;12.540;2022-08-19T08:03:22;19.40;99.90
20590;DHT22;10453;50.810;12.540;2022-08-19T08:08:03;19.40;99.90
20590;DHT22;10453;50.810;12.540;2022-08-19T08:12:43;19.60;99.90
20590;DHT22;10453;50.810;12.540;2022-08-19T08:17:23;19.70;99.90
20590;DHT22;10453;50.810;12.540;2022-08-19T08:22:02;19.70;99.90
20590;DHT22;10453;50.810;12.540;2022-08-19T08:26:19;19.70;99.90
20590;DHT22;10453;50.810;12.540;2022-08-19T08:30:37;19.50;99.90
20590;DHT22;10453;50.810;12.540;2022-08-19T08:35:01;19.50;99.90
20590;DHT22;10453;50.810;12.540;2022-08-19T08:39:20;19.50;99.90
20590;DHT22;10453;50.810;12.540;2022-08-19T08:43:39;19.60;99.90
20590;DHT22;10453;50.810;12.540;2022-08-19T08:48:02;19.50;99.90
20590;DHT22;10453;50.810;12.540;2022-08-19T08:52:43;19.70;99.90
20590;DHT22;10453;50.810;12.540;2022-08-19T08:57:05;19.90;99.90
20590;DHT22;10453;50.810;12.540;2022-08-19T09:01:24;20.20;99.90
20590;DHT22;10453;50.810;12.540;2022-08-19T09:06:24;20.10;99.90
20590;DHT22;10453;50.810;12.540;2022-08-19T09:10:49;20.40;99.90
20590;DHT22;10453;50.810;12.540;2022-08-19T09:15:13;20.60;99.90
20590;DHT22;10453;50.810;12.540;2022-08-19T09:19:32;21.00;99.90
20590;DHT22;10453;50.810;12.540;2022-08-19T09:23:49;21.20;99.90
20590;DHT22;10453;50.810;12.540;2022-08-19T09:28:08;20.80;99.90
20590;DHT22;10453;50.810;12.540;2022-08-19T09:32:38;20.60;99.90
20590;DHT22;10453;50.810;12.540;2022-08-19T09:36:58;20.30;99.90
20590;DHT22;10453;50.810;12.540;2022-08-19T09:41:22;20.00;99.90
20590;DHT22;10453;50.810;12.540;2022-08-19T09:45:40;20.10;99.90
20590;DHT22;10453;50.810;12.540;2022-08-19T09:49:57;20.10;99.90
20590;DHT22;10453;50.810;12.540;2022-08-19T09:54:15;20.20;99.90
20590;DHT22;10453;50.810;12.540;2022-08-19T09:58:40;20.00;99.90
20590;DHT22;10453;50.810;12.540;2022-08-19T10:02:57;19.80;99.90
20590;DHT22;10453;50.810;12.540;2022-08-19T10:07:15;19.70;99.90
20590;DHT22;10453;50.810;12.540;2022-08-19T10:11:34;19.60;99.90
20590;DHT22;10453;50.810;12.540;2022-08-19T10:16:03;19.50;99.90
20590;DHT22;10453;50.810;12.540;2022-08-19T10:20:21;19.20;99.90
20590;DHT22;10453;50.810;12.540;2022-08-19T10:24:40;19.30;99.90
20590;DHT22;10453;50.810;12.540;2022-08-19T10:28:58;19.30;99.90
20590;DHT22;10453;50.810;12.540;2022-08-19T10:33:15;19.30;99.90
20590;DHT22;10453;50.810;12.540;2022-08-19T10:37:52;19.40;99.90
20590;DHT22;10453;50.810;12.540;2022-08-19T10:42:18;19.40;99.90
20590;DHT22;10453;50.810;12.540;2022-08-19T10:46:38;19.30;99.90
20590;DHT22;10453;50.810;12.540;2022-08-19T10:51:04;19.10;99.90
20590;DHT22;10453;50.810;12.540;2022-08-19T10:55:41;18.90;99.90
20590;DHT22;10453;50.810;12.540;2022-08-19T11:00:21;18.80;99.90
20590;DHT22;10453;50.810;12.540;2022-08-19T11:04:40;18.80;99.90
20590;DHT22;10453;50.810;12.540;2022-08-19T11:08:57;18.60;99.90
20590;DHT22;10453;50.810;12.540;2022-08-19T11:13:16;18.60;99.90
20590;DHT22;10453;50.810;12.540;2022-08-19T11:17:33;18.70;99.90
20590;DHT22;10453;50.810;12.540;2022-08-19T11:21:52;18.70;99.90
20590;DHT22;10453;50.810;12.540;2022-08-19T11:26:14;18.70;99.90
20590;DHT22;10453;50.810;12.540;2022-08-19T11:30:32;18.70;99.90
20590;DHT22;10453;50.810;12.540;2022-08-19T11:34:50;18.80;99.90
20590;DHT22;10453;50.810;12.540;2022-08-19T11:39:10;18.80;99.90
20590;DHT22;10453;50.810;12.540;2022-08-19T11:43:28;19.00;99.90
20590;DHT22;10453;50.810;12.540;2022-08-19T11:47:50;18.90;99.90
20590;DHT22;10453;50.810;12.540;2022-08-19T11:52:07;19.20;99.90
20590;DHT22;10453;50.810;12.540;2022-08-19T11:56:25;19.50;99.90
20590;DHT22;10453;50.810;12.540;2022-08-19T12:00:43;19.20;99.90
20590;DHT22;10453;50.810;12.540;2022-08-19T12:05:02;19.00;99.90
20590;DHT22;10453;50.810;12.540;2022-08-19T12:09:22;18.80;99.90
20590;DHT22;10453;50.810;12.540;2022-08-19T12:13:40;18.80;99.90
20590;DHT22;10453;50.810;12.540;2022-08-19T12:17:58;18.90;99.90
20590;DHT22;10453;50.810;12.540;2022-08-19T12:22:15;18.90;99.90
20590;DHT22;10453;50.810;12.540;2022-08-19T12:26:32;19.00;99.90
20590;DHT22;10453;50.810;12.540;2022-08-19T12:30:52;19.10;99.90
20590;DHT22;10453;50.810;12.540;2022-08-19T12:35:09;19.30;99.90
20590;DHT22;10453;50.810;12.540;2022-08-19T12:39:28;19.30;99.90
20590;DHT22;10453;50.810;12.540;2022-08-19T12:43:45;19.40;99.90
20590;DHT22;10453;50.810;12.540;2022-08-19T12:48:03;19.40;99.90
20590;DHT22;10453;50.810;12.540;2022-08-19T12:52:40;19.30;99.90
20590;DHT22;10453;50.810;12.540;2022-08-19T12:56:59;19.20;99.90
20590;DHT22;10453;50.810;12.540;2022-08-19T13:01:17;19.20;99.90
20590;DHT22;10453;50.810;12.540;2022-08-19T13:05:38;19.10;99.90
20590;DHT22;10453;50.810;12.540;2022-08-19T13:09:55;19.00;99.90
20590;DHT22;10453;50.810;12.540;2022-08-19T13:14:14;19.00;99.90
20590;DHT22;10453;50.810;12.540;2022-08-19T13:18:32;19.00;99.90
20590;DHT22;10453;50.810;12.540;2022-08-19T13:22:49;19.20;99.90
20590;DHT22;10453;50.810;12.540;2022-08-19T13:27:06;19.20;99.90
20590;DHT22;10453;50.810;12.540;2022-08-19T13:31:25;19.40;99.90
20590;DHT22;10453;50.810;12.540;2022-08-19T13:36:02;19.60;99.90
20590;DHT22;10453;50.810;12.540;2022-08-19T13:40:24;19.80;99.90
20590;DHT22;10453;50.810;12.540;2022-08-19T13:44:43;20.00;99.90
20590;DHT22;10453;50.810;12.540;2022-08-19T13:49:01;19.90;99.90
20590;DHT22;10453;50.810;12.540;2022-08-19T13:53:18;19.90;99.90
20590;DHT22;10453;50.810;12.540;2022-08-19T13:57:36;20.00;99.90
20590;DHT22;10453;50.810;12.540;2022-08-19T14:01:59;20.00;99.90
20590;DHT22;10453;50.810;12.540;2022-08-19T14:06:16;20.10;99.90
20590;DHT22;10453;50.810;12.540;2022-08-19T14:10:34;20.50;99.90
20590;DHT22;10453;50.810;12.540;2022-08-19T14:14:51;20.70;99.90
20590;DHT22;10453;50.810;12.540;2022-08-19T14:19:08;20.60;99.90
20590;DHT22;10453;50.810;12.540;2022-08-19T14:23:25;20.30;99.90
20590;DHT22;10453;50.810;12.540;2022-08-19T14:27:43;20.10;99.90
20590;DHT22;10453;50.810;12.540;2022-08-19T14:32:00;20.00;99.90
20590;DHT22;10453;50.810;12.540;2022-08-19T14:36:19;20.00;99.90
20590;DHT22;10453;50.810;12.540;2022-08-19T14:40:37;19.90;99.90
20590;DHT22;10453;50.810;12.540;2022-08-19T14:44:59;19.70;99.90
20590;DHT22;10453;50.810;12.540;2022-08-19T14:49:17;19.70;99.90
20590;DHT22;10453;50.810;12.540;2022-08-19T14:53:35;19.70;99.90
20590;DHT22;10453;50.810;12.540;2022-08-19T14:57:52;19.70;99.90
20590;DHT22;10453;50.810;12.540;2022-08-19T15:02:10;19.70;99.90
20590;DHT22;10453;50.810;12.540;2022-08-19T15:06:48;19.80;99.90
20590;DHT22;10453;50.810;12.540;2022-08-19T15:11:10;19.80;99.90
20590;DHT22;10453;50.810;12.540;2022-08-19T15:15:28;19.80;99.90
20590;DHT22;10453;50.810;12.540;2022-08-19T15:19:45;19.60;99.90
20590;DHT22;10453;50.810;12.540;2022-08-19T15:24:03;19.60;99.90
20590;DHT22;10453;50.810;12.540;2022-08-19T15:28:22;19.60;99.90
20590;DHT22;10453;50.810;12.540;2022-08-19T15:32:39;19.70;99.90
20590;DHT22;10453;50.810;12.540;2022-08-19T15:36:57;19.50;99.90
20590;DHT22;10453;50.810;12.540;2022-08-19T15:41:22;19.50;99.90
20590;DHT22;10453;50.810;12.540;2022-08-19T15:45:41;19.40;99.90
20590;DHT22;10453;50.810;12.540;2022-08-19T15:50:10;19.30;99.90
20590;DHT22;10453;50.810;12.540;2022-08-19T15:54:28;19.20;99.90
20590;DHT22;10453;50.810;12.540;2022-08-19T15:58:45;19.20;99.90
20590;DHT22;10453;50.810;12.540;2022-08-19T16:03:21;19.20;99.90
20590;DHT22;10453;50.810;12.540;2022-08-19T16:08:05;19.20;99.90
20590;DHT22;10453;50.810;12.540;2022-08-19T16:12:23;19.20;99.90
20590;DHT22;10453;50.810;12.540;2022-08-19T16:16:46;19.30;99.90
20590;DHT22;10453;50.810;12.540;2022-08-19T16:21:05;19.30;99.90
20590;DHT22;10453;50.810;12.540;2022-08-19T16:25:26;19.20;99.90
20590;DHT22;10453;50.810;12.540;2022-08-19T16:29:45;19.30;99.90
20590;DHT22;10453;50.810;12.540;2022-08-19T16:34:03;19.40;99.90
20590;DHT22;10453;50.810;12.540;2022-08-19T16:38:20;19.40;99.90
20590;DHT22;10453;50.810;12.540;2022-08-19T16:42:38;19.50;99.90
20590;DHT22;10453;50.810;12.540;2022-08-19T16:46:57;19.50;99.90
20590;DHT22;10453;50.810;12.540;2022-08-19T16:51:16;19.40;99.90
20590;DHT22;10453;50.810;12.540;2022-08-19T16:55:34;19.50;99.90
20590;DHT22;10453;50.810;12.540;2022-08-19T16:59:51;19.40;99.90
20590;DHT22;10453;50.810;12.540;2022-08-19T17:04:09;19.40;99.90
20590;DHT22;10453;50.810;12.540;2022-08-19T17:08:27;19.30;99.90
20590;DHT22;10453;50.810;12.540;2022-08-19T17:12:44;19.20;99.90
20590;DHT22;10453;50.810;12.540;2022-08-19T17:17:02;19.20;99.90
20590;DHT22;10453;50.810;12.540;2022-08-19T17:21:23;19.40;99.90
20590;DHT22;10453;50.810;12.540;2022-08-19T17:25:41;19.40;99.90
20590;DHT22;10453;50.810;12.540;2022-08-19T17:30:01;19.50;99.90
20590;DHT22;10453;50.810;12.540;2022-08-19T17:34:18;19.30;99.90
20590;DHT22;10453;50.810;12.540;2022-08-19T17:38:36;19.20;99.90
20590;DHT22;10453;50.810;12.540;2022-08-19T17:42:54;19.20;99.90
20590;DHT22;10453;50.810;12.540;2022-08-19T17:47:12;19.20;99.90
20590;DHT22;10453;50.810;12.540;2022-08-19T17:55:50;19.10;99.90
20590;DHT22;10453;50.810;12.540;2022-08-19T18:00:08;18.90;99.90
20590;DHT22;10453;50.810;12.540;2022-08-19T18:04:33;18.90;99.90
20590;DHT22;10453;50.810;12.540;2022-08-19T18:08:51;18.90;99.90
20590;DHT22;10453;50.810;12.540;2022-08-19T18:13:08;19.00;99.90
20590;DHT22;10453;50.810;12.540;2022-08-19T18:17:34;18.90;99.90
20590;DHT22;10453;50.810;12.540;2022-08-19T18:21:52;18.90;99.90
20590;DHT22;10453;50.810;12.540;2022-08-19T18:26:10;18.70;99.90
20590;DHT22;10453;50.810;12.540;2022-08-19T18:30:29;18.70;99.90
20590;DHT22;10453;50.810;12.540;2022-08-19T18:34:51;18.80;99.90
20590;DHT22;10453;50.810;12.540;2022-08-19T18:39:08;19.00;99.90
20590;DHT22;10453;50.810;12.540;2022-08-19T18:43:45;19.00;99.90
20590;DHT22;10453;50.810;12.540;2022-08-19T18:48:22;18.80;99.90
20590;DHT22;10453;50.810;12.540;2022-08-19T18:52:58;18.70;99.90
20590;DHT22;10453;50.810;12.540;2022-08-19T18:57:16;18.60;99.90
20590;DHT22;10453;50.810;12.540;2022-08-19T19:01:36;18.50;99.90
20590;DHT22;10453;50.810;12.540;2022-08-19T19:05:54;18.60;99.90
20590;DHT22;10453;50.810;12.540;2022-08-19T19:10:11;18.60;99.90
20590;DHT22;10453;50.810;12.540;2022-08-19T19:14:32;18.50;99.90
20590;DHT22;10453;50.810;12.540;2022-08-19T19:19:06;18.50;99.90
20590;DHT22;10453;50.810;12.540;2022-08-19T19:23:24;18.60;99.90
20590;DHT22;10453;50.810;12.540;2022-08-19T19:27:41;18.60;99.90
20590;DHT22;10453;50.810;12.540;2022-08-19T19:31:59;18.50;99.90
20590;DHT22;10453;50.810;12.540;2022-08-19T19:36:17;18.50;99.90
20590;DHT22;10453;50.810;12.540;2022-08-19T19:40:34;18.50;99.90
20590;DHT22;10453;50.810;12.540;2022-08-19T19:44:53;18.50;99.90
20590;DHT22;10453;50.810;12.540;2022-08-19T19:49:12;18.50;99.90
20590;DHT22;10453;50.810;12.540;2022-08-19T19:53:29;18.40;99.90
20590;DHT22;10453;50.810;12.540;2022-08-19T19:57:47;18.40;99.90
20590;DHT22;10453;50.810;12.540;2022-08-19T20:02:05;18.40;99.90
20590;DHT22;10453;50.810;12.540;2022-08-19T20:06:22;18.40;99.90
20590;DHT22;10453;50.810;12.540;2022-08-19T20:10:41;18.40;99.90
20590;DHT22;10453;50.810;12.540;2022-08-19T20:14:59;18.40;99.90
20590;DHT22;10453;50.810;12.540;2022-08-19T20:19:19;18.30;99.90
20590;DHT22;10453;50.810;12.540;2022-08-19T20:23:36;18.30;99.90
20590;DHT22;10453;50.810;12.540;2022-08-19T20:27:53;18.30;99.90
20590;DHT22;10453;50.810;12.540;2022-08-19T20:32:11;18.30;99.90
20590;DHT22;10453;50.810;12.540;2022-08-19T20:36:30;18.30;99.90
20590;DHT22;10453;50.810;12.540;2022-08-19T20:40:47;18.30;99.90
20590;DHT22;10453;50.810;12.540;2022-08-19T20:45:10;18.40;99.90
20590;DHT22;10453;50.810;12.540;2022-08-19T20:49:47;18.30;99.90
20590;DHT22;10453;50.810;12.540;2022-08-19T20:54:04;18.40;99.90
20590;DHT22;10453;50.810;12.540;2022-08-19T20:58:23;18.40;99.90
20590;DHT22;10453;50.810;12.540;2022-08-19T21:02:40;18.40;99.90
20590;DHT22;10453;50.810;12.540;2022-08-19T21:06:58;18.40;99.90
20590;DHT22;10453;50.810;12.540;2022-08-19T21:11:15;18.40;99.90
20590;DHT22;10453;50.810;12.540;2022-08-19T21:15:37;18.40;99.90
20590;DHT22;10453;50.810;12.540;2022-08-19T21:19:59;18.40;99.90
20590;DHT22;10453;50.810;12.540;2022-08-19T21:24:16;18.40;99.90
20590;DHT22;10453;50.810;12.540;2022-08-19T21:28:34;18.40;99.90
20590;DHT22;10453;50.810;12.540;2022-08-19T21:32:53;18.50;99.90
20590;DHT22;10453;50.810;12.540;2022-08-19T21:37:11;18.50;99.90
20590;DHT22;10453;50.810;12.540;2022-08-19T21:41:41;18.40;99.90
20590;DHT22;10453;50.810;12.540;2022-08-19T21:45:59;18.40;99.90
20590;DHT22;10453;50.810;12.540;2022-08-19T21:50:18;18.40;99.90
20590;DHT22;10453;50.810;12.540;2022-08-19T21:54:35;18.50;99.90
20590;DHT22;10453;50.810;12.540;2022-08-19T21:58:54;18.40;99.90
20590;DHT22;10453;50.810;12.540;2022-08-19T22:03:12;18.30;99.90
20590;DHT22;10453;50.810;12.540;2022-08-19T22:07:33;18.40;99.90
20590;DHT22;10453;50.810;12.540;2022-08-19T22:11:50;18.30;99.90
20590;DHT22;10453;50.810;12.540;2022-08-19T22:16:08;18.30;99.90
20590;DHT22;10453;50.810;12.540;2022-08-19T22:20:29;18.30;99.90
20590;DHT22;10453;50.810;12.540;2022-08-19T22:24:46;18.30;99.90
20590;DHT22;10453;50.810;12.540;2022-08-19T22:29:04;18.30;99.90
20590;DHT22;10453;50.810;12.540;2022-08-19T22:33:21;18.40;99.90
20590;DHT22;10453;50.810;12.540;2022-08-19T22:37:39;18.40;99.90
20590;DHT22;10453;50.810;12.540;2022-08-19T22:41:57;18.40;99.90
20590;DHT22;10453;50.810;12.540;2022-08-19T22:46:14;18.30;99.90
20590;DHT22;10453;50.810;12.540;2022-08-19T22:50:34;18.30;99.90
20590;DHT22;10453;50.810;12.540;2022-08-19T22:54:54;18.20;99.90
20590;DHT22;10453;50.810;12.540;2022-08-19T22:59:12;18.20;99.90
20590;DHT22;10453;50.810;12.540;2022-08-19T23:03:30;18.20;99.90
20590;DHT22;10453;50.810;12.540;2022-08-19T23:07:47;18.20;99.90
20590;DHT22;10453;50.810;12.540;2022-08-19T23:12:09;18.30;99.90
20590;DHT22;10453;50.810;12.540;2022-08-19T23:16:28;18.30;99.90
20590;DHT22;10453;50.810;12.540;2022-08-19T23:20:46;18.30;99.90
20590;DHT22;10453;50.810;12.540;2022-08-19T23:25:05;18.30;99.90
20590;DHT22;10453;50.810;12.540;2022-08-19T23:29:22;18.30;99.90
20590;DHT22;10453;50.810;12.540;2022-08-19T23:33:58;18.30;99.90
20590;DHT22;10453;50.810;12.540;2022-08-19T23:38:16;18.30;99.90
20590;DHT22;10453;50.810;12.540;2022-08-19T23:42:39;18.40;99.90
20590;DHT22;10453;50.810;12.540;2022-08-19T23:46:56;18.20;99.90
20590;DHT22;10453;50.810;12.540;2022-08-19T23:51:15;18.40;99.90
20590;DHT22;10453;50.810;12.540;2022-08-19T23:55:35;18.40;99.90
20590;DHT22;10453;50.810;12.540;2022-08-19T23:59:53;18.30;99.90
